Time;durP1;ratioP1;P1;durP2;ratioP2;P2;SDS_P1;SDS_P2;PMS_P1;PMS_P2;Temp;Humidity;BMP_temperature;BMP_pressure;BME280_temperature;BME280_humidity;BME280_pressure;Samples;Min_cycle;Max_cycle;Signal;HPM_P1;HPM_P2
2023/06/20 00:00:48;;;;;;;8.45;5.85;;;;;;;;;;5011834;28;92364;-80
2023/06/20 00:03:15;;;;;;;8.77;6.03;;;;;;;;;;5006736;28;92395;-80
2023/06/20 00:05:41;;;;;;;10.27;6.05;;;;;;;;;;5012391;28;92120;-80
2023/06/20 00:08:08;;;;;;;10.57;6.05;;;;;;;;;;4999421;28;92508;-79
2023/06/20 00:10:35;;;;;;;8.75;6.18;;;;;;;;;;5001897;28;91784;-80
2023/06/20 00:13:01;;;;;;;9.23;6.20;;;;;;;;;;5004943;28;92362;-80
2023/06/20 00:15:28;;;;;;;14.60;7.07;;;;;;;;;;5010521;28;92095;-80
2023/06/20 00:17:55;;;;;;;13.70;6.53;;;;;;;;;;4990503;28;94529;-80
2023/06/20 00:20:22;;;;;;;8.35;6.10;;;;;;;;;;4997565;28;93275;-80
2023/06/20 00:22:50;;;;;;;12.73;6.32;;;;;;;;;;5007300;28;92949;-80
2023/06/20 00:25:17;;;;;;;8.25;5.60;;;;;;;;;;5001754;28;92926;-80
2023/06/20 00:27:43;;;;;;;9.57;5.97;;;;;;;;;;5009120;28;93122;-80
2023/06/20 00:30:10;;;;;;;8.40;6.57;;;;;;;;;;5004376;28;92258;-80
2023/06/20 00:32:37;;;;;;;13.43;6.78;;;;;;;;;;4986840;28;92956;-80
2023/06/20 00:35:04;;;;;;;7.85;5.53;;;;;;;;;;4998482;28;92707;-80
2023/06/20 00:37:30;;;;;;;10.60;5.72;;;;;;;;;;5018536;28;93773;-80
2023/06/20 00:39:57;;;;;;;8.60;6.43;;;;;;;;;;5012189;28;92420;-80
2023/06/20 00:42:24;;;;;;;6.38;5.78;;;;;;;;;;5020877;28;94934;-80
2023/06/20 00:44:51;;;;;;;9.88;5.93;;;;;;;;;;5012677;28;94089;-80
2023/06/20 00:47:18;;;;;;;5.95;5.40;;;;;;;;;;5011573;28;92275;-80
2023/06/20 00:49:48;;;;;;;9.13;6.22;;;;;;;;;;5015075;28;92462;-80
2023/06/20 00:52:22;;;;;;;8.38;6.22;;;;;;;;;;4991166;28;92551;-80
2023/06/20 00:54:49;;;;;;;10.15;6.25;;;;;;;;;;4995088;28;92177;-80
2023/06/20 00:57:17;;;;;;;8.20;5.82;;;;;;;;;;5024850;28;95440;-81
2023/06/20 00:59:45;;;;;;;7.07;5.80;;;;;;;;;;5009268;28;92014;-80
2023/06/20 01:02:12;;;;;;;13.43;5.65;;;;;;;;;;5001304;28;92303;-80
2023/06/20 01:04:39;;;;;;;8.45;5.28;;;;;;;;;;5024044;28;92917;-80
2023/06/20 01:07:08;;;;;;;9.15;6.22;;;;;;;;;;5005524;28;96997;-80
2023/06/20 01:09:44;;;;;;;6.88;5.93;;;;;;;;;;5008226;28;94301;-80
2023/06/20 01:12:10;;;;;;;17.23;5.85;;;;;;;;;;5009833;28;92164;-80
2023/06/20 01:14:43;;;;;;;7.72;6.22;;;;;;;;;;5004637;28;92519;-80
2023/06/20 01:17:14;;;;;;;8.90;5.40;;;;;;;;;;5011528;28;92413;-80
2023/06/20 01:19:53;;;;;;;6.43;5.45;;;;;;;;;;5016408;28;92897;-80
2023/06/20 01:22:50;;;;;;;16.15;5.85;;;;;;;;;;5012959;28;92059;-80
2023/06/20 01:25:36;;;;;;;10.32;6.20;;;;;;;;;;4955457;28;92374;-80
2023/06/20 01:28:08;;;;;;;8.25;5.97;;;;;;;;;;5017650;28;93876;-80
2023/06/20 01:30:50;;;;;;;6.68;5.38;;;;;;;;;;4995583;28;91815;-80
2023/06/20 01:33:19;;;;;;;8.25;6.07;;;;;;;;;;5006234;28;94452;-80
2023/06/20 01:35:47;;;;;;;10.07;6.22;;;;;;;;;;5004456;28;93895;-80
2023/06/20 01:38:15;;;;;;;7.95;6.13;;;;;;;;;;4999404;28;93114;-80
2023/06/20 01:40:47;;;;;;;6.95;5.32;;;;;;;;;;5012586;28;92473;-80
2023/06/20 01:43:14;;;;;;;11.07;5.30;;;;;;;;;;5009020;28;92241;-80
2023/06/20 01:45:43;;;;;;;8.57;5.65;;;;;;;;;;5035915;28;92369;-80
2023/06/20 01:48:11;;;;;;;8.30;6.55;;;;;;;;;;4997944;28;94928;-80
2023/06/20 01:50:38;;;;;;;6.88;6.10;;;;;;;;;;5018326;28;91863;-80
2023/06/20 01:53:05;;;;;;;9.85;5.97;;;;;;;;;;5016670;28;92304;-80
2023/06/20 01:55:32;;;;;;;10.32;6.63;;;;;;;;;;5008356;28;92388;-80
2023/06/20 01:58:00;;;;;;;8.98;5.97;;;;;;;;;;5008371;28;94784;-80
2023/06/20 02:00:28;;;;;;;13.32;6.00;;;;;;;;;;5006999;28;96427;-80
2023/06/20 02:02:56;;;;;;;7.38;5.72;;;;;;;;;;5020673;28;92712;-80
2023/06/20 02:05:24;;;;;;;9.85;6.13;;;;;;;;;;5005392;28;95393;-80
2023/06/20 02:07:54;;;;;;;10.88;6.53;;;;;;;;;;5017297;28;92753;-80
2023/06/20 02:10:21;;;;;;;6.55;5.72;;;;;;;;;;5001529;28;92415;-80
2023/06/20 02:12:50;;;;;;;9.75;5.60;;;;;;;;;;5008642;28;92532;-80
2023/06/20 02:15:18;;;;;;;9.45;5.85;;;;;;;;;;5004282;28;95123;-80
2023/06/20 02:17:45;;;;;;;8.30;6.82;;;;;;;;;;5012304;28;92846;-80
2023/06/20 02:20:13;;;;;;;12.98;5.85;;;;;;;;;;5016292;28;92046;-80
2023/06/20 02:22:42;;;;;;;8.32;6.45;;;;;;;;;;5012513;28;94339;-80
2023/06/20 02:25:14;;;;;;;12.50;6.57;;;;;;;;;;5009675;28;95890;-80
2023/06/20 02:27:42;;;;;;;9.88;6.00;;;;;;;;;;4996076;28;92335;-80
2023/06/20 02:30:09;;;;;;;12.82;6.25;;;;;;;;;;5003379;28;93339;-80
2023/06/20 02:32:36;;;;;;;6.18;5.57;;;;;;;;;;4992186;28;94795;-80
2023/06/20 02:35:05;;;;;;;9.48;6.00;;;;;;;;;;5002813;28;94281;-80
2023/06/20 02:37:33;;;;;;;11.90;6.13;;;;;;;;;;5019168;28;92362;-80
2023/06/20 02:40:04;;;;;;;7.50;5.47;;;;;;;;;;5019225;28;95350;-79
2023/06/20 02:42:31;;;;;;;8.57;5.80;;;;;;;;;;5003574;28;93461;-79
2023/06/20 02:44:58;;;;;;;8.18;6.40;;;;;;;;;;5000063;28;92438;-79
2023/06/20 02:47:48;;;;;;;10.30;6.30;;;;;;;;;;5018222;28;94514;-79
2023/06/20 02:50:18;;;;;;;13.98;6.20;;;;;;;;;;5001642;28;95037;-79
2023/06/20 02:52:52;;;;;;;8.65;5.90;;;;;;;;;;5016864;28;92284;-79
2023/06/20 02:55:28;;;;;;;9.80;5.32;;;;;;;;;;5009183;28;93242;-79
2023/06/20 02:57:56;;;;;;;9.60;5.90;;;;;;;;;;5007375;28;92412;-79
2023/06/20 03:00:24;;;;;;;7.65;5.68;;;;;;;;;;5005622;28;92662;-79
2023/06/20 03:02:58;;;;;;;10.15;6.28;;;;;;;;;;5003701;28;92171;-79
2023/06/20 03:05:26;;;;;;;8.15;6.10;;;;;;;;;;4991558;28;95037;-79
2023/06/20 03:07:54;;;;;;;9.48;6.78;;;;;;;;;;5008142;28;94064;-79
2023/06/20 03:10:21;;;;;;;7.28;6.18;;;;;;;;;;5007605;28;93377;-79
2023/06/20 03:12:50;;;;;;;8.63;6.55;;;;;;;;;;5006761;28;94765;-79
2023/06/20 03:15:16;;;;;;;10.98;5.88;;;;;;;;;;5011008;28;97414;-79
2023/06/20 03:17:43;;;;;;;8.40;6.72;;;;;;;;;;5004097;28;92034;-79
2023/06/20 03:20:10;;;;;;;10.70;6.80;;;;;;;;;;4992246;28;94147;-79
2023/06/20 03:22:38;;;;;;;8.32;6.43;;;;;;;;;;5009928;28;95490;-79
2023/06/20 03:25:05;;;;;;;14.30;7.97;;;;;;;;;;5016919;28;92247;-80
2023/06/20 03:27:32;;;;;;;10.25;6.45;;;;;;;;;;5018618;28;94554;-79
2023/06/20 03:30:03;;;;;;;9.23;6.63;;;;;;;;;;4998913;28;94497;-79
2023/06/20 03:32:33;;;;;;;9.95;6.88;;;;;;;;;;4999287;28;92458;-79
2023/06/20 03:35:18;;;;;;;10.20;6.25;;;;;;;;;;5003297;28;91866;-79
2023/06/20 03:37:45;;;;;;;10.88;6.85;;;;;;;;;;4989071;28;94885;-79
2023/06/20 03:40:12;;;;;;;13.38;6.57;;;;;;;;;;4999157;28;97683;-79
2023/06/20 03:42:41;;;;;;;9.38;7.40;;;;;;;;;;4987244;28;93329;-79
2023/06/20 03:45:08;;;;;;;10.65;7.20;;;;;;;;;;5001723;28;93358;-79
2023/06/20 03:47:37;;;;;;;10.07;7.43;;;;;;;;;;5012424;28;92340;-79
2023/06/20 03:50:04;;;;;;;9.48;7.65;;;;;;;;;;4991622;28;95077;-79
2023/06/20 03:52:31;;;;;;;9.43;6.80;;;;;;;;;;5010263;28;94793;-80
2023/06/20 03:54:57;;;;;;;11.95;8.23;;;;;;;;;;5002268;28;94183;-79
2023/06/20 03:57:24;;;;;;;12.13;7.82;;;;;;;;;;5014129;28;93495;-79
2023/06/20 03:59:52;;;;;;;11.00;8.32;;;;;;;;;;5003134;28;92480;-79
2023/06/20 04:02:19;;;;;;;10.05;7.18;;;;;;;;;;4998979;28;94447;-79
2023/06/20 04:04:49;;;;;;;11.50;7.38;;;;;;;;;;5010179;28;92049;-79
2023/06/20 04:07:18;;;;;;;12.52;7.70;;;;;;;;;;4998561;28;92644;-79
2023/06/20 04:09:51;;;;;;;10.05;7.43;;;;;;;;;;5005164;28;94099;-79
2023/06/20 04:12:18;;;;;;;12.50;7.70;;;;;;;;;;4993862;28;93843;-79
2023/06/20 04:14:45;;;;;;;9.18;7.28;;;;;;;;;;5023076;28;93790;-79
2023/06/20 04:17:11;;;;;;;10.98;7.90;;;;;;;;;;5004262;28;92265;-79
2023/06/20 04:19:38;;;;;;;14.85;7.93;;;;;;;;;;5010037;28;92060;-79
2023/06/20 04:22:05;;;;;;;12.63;7.75;;;;;;;;;;5000582;28;92172;-78
2023/06/20 04:24:32;;;;;;;13.27;7.97;;;;;;;;;;5002316;28;93066;-79
2023/06/20 04:27:00;;;;;;;10.00;7.60;;;;;;;;;;4996996;28;94620;-79
2023/06/20 04:29:29;;;;;;;10.85;7.10;;;;;;;;;;4998977;28;92323;-79
2023/06/20 04:31:56;;;;;;;8.25;7.40;;;;;;;;;;4997005;28;92828;-79
2023/06/20 04:34:23;;;;;;;13.02;7.35;;;;;;;;;;4997620;28;93886;-79
2023/06/20 04:36:51;;;;;;;11.00;7.18;;;;;;;;;;4998095;28;92345;-79
2023/06/20 04:39:18;;;;;;;9.23;7.18;;;;;;;;;;5003067;28;92009;-79
2023/06/20 04:41:45;;;;;;;12.70;7.20;;;;;;;;;;5029015;28;95185;-79
2023/06/20 04:44:12;;;;;;;18.15;7.72;;;;;;;;;;5030340;28;94355;-78
2023/06/20 04:46:39;;;;;;;9.23;7.70;;;;;;;;;;5008811;28;93687;-78
2023/06/20 04:49:05;;;;;;;11.07;7.72;;;;;;;;;;5012145;28;92241;-79
2023/06/20 04:51:32;;;;;;;13.13;8.15;;;;;;;;;;5012047;28;94929;-78
2023/06/20 04:54:01;;;;;;;9.93;8.02;;;;;;;;;;5021824;28;96754;-79
2023/06/20 04:56:27;;;;;;;12.57;7.65;;;;;;;;;;5026375;28;94927;-78
2023/06/20 04:58:54;;;;;;;11.48;7.93;;;;;;;;;;5012095;28;92319;-78
2023/06/20 05:01:20;;;;;;;10.63;8.07;;;;;;;;;;5016733;28;93752;-79
2023/06/20 05:03:47;;;;;;;13.02;8.77;;;;;;;;;;5002888;28;92268;-79
2023/06/20 05:06:17;;;;;;;11.35;8.57;;;;;;;;;;5031190;28;94447;-78
2023/06/20 05:08:46;;;;;;;14.63;8.43;;;;;;;;;;4997656;28;93693;-79
2023/06/20 05:11:12;;;;;;;13.15;8.15;;;;;;;;;;4991307;28;93838;-79
2023/06/20 05:13:39;;;;;;;11.27;7.63;;;;;;;;;;4997904;28;92227;-79
2023/06/20 05:16:05;;;;;;;12.90;8.43;;;;;;;;;;5008084;28;96578;-79
2023/06/20 05:18:32;;;;;;;11.25;7.97;;;;;;;;;;5003590;28;92510;-79
2023/06/20 05:21:02;;;;;;;11.48;8.77;;;;;;;;;;4993257;28;92185;-78
2023/06/20 05:23:28;;;;;;;10.27;8.52;;;;;;;;;;5012337;28;92363;-78
2023/06/20 05:25:55;;;;;;;19.60;8.85;;;;;;;;;;5021466;28;94496;-79
2023/06/20 05:28:22;;;;;;;13.35;8.98;;;;;;;;;;5008627;28;93040;-79
2023/06/20 05:30:48;;;;;;;13.25;8.55;;;;;;;;;;5011293;28;92221;-79
2023/06/20 05:33:15;;;;;;;10.27;9.13;;;;;;;;;;5009603;28;93690;-79
2023/06/20 05:35:44;;;;;;;14.90;9.52;;;;;;;;;;5012468;28;94471;-78
2023/06/20 05:38:12;;;;;;;11.27;8.43;;;;;;;;;;4989131;28;94095;-78
2023/06/20 05:40:39;;;;;;;8.85;7.63;;;;;;;;;;5009970;28;94277;-80
2023/06/20 05:43:05;;;;;;;11.73;9.25;;;;;;;;;;5012945;28;94407;-79
2023/06/20 05:45:32;;;;;;;18.10;8.77;;;;;;;;;;5011857;28;92002;-81
2023/06/20 05:48:01;;;;;;;11.73;8.40;;;;;;;;;;5014855;28;94314;-80
2023/06/20 05:50:30;;;;;;;13.20;10.00;;;;;;;;;;5006883;28;92380;-79
2023/06/20 05:52:57;;;;;;;13.25;9.60;;;;;;;;;;5001396;28;93769;-79
2023/06/20 05:55:23;;;;;;;15.88;8.90;;;;;;;;;;5021067;28;92750;-79
2023/06/20 05:57:50;;;;;;;13.10;9.95;;;;;;;;;;5013511;28;91997;-79
2023/06/20 06:00:17;;;;;;;12.95;8.48;;;;;;;;;;5006310;28;92381;-80
2023/06/20 06:02:45;;;;;;;12.73;9.00;;;;;;;;;;5015207;28;94444;-80
2023/06/20 06:05:12;;;;;;;11.73;9.25;;;;;;;;;;5007332;28;94736;-80
2023/06/20 06:07:39;;;;;;;22.75;9.75;;;;;;;;;;5014499;28;94001;-79
2023/06/20 06:10:07;;;;;;;14.60;8.70;;;;;;;;;;5005442;28;92509;-79
2023/06/20 06:12:37;;;;;;;17.10;10.27;;;;;;;;;;5017712;28;94440;-80
2023/06/20 06:15:04;;;;;;;14.50;9.60;;;;;;;;;;5008576;28;93743;-80
2023/06/20 06:17:31;;;;;;;18.10;10.23;;;;;;;;;;5002474;28;92392;-80
2023/06/20 06:19:58;;;;;;;10.60;8.63;;;;;;;;;;5015673;28;92979;-81
2023/06/20 06:22:25;;;;;;;18.15;9.95;;;;;;;;;;5010245;28;94321;-80
2023/06/20 06:24:51;;;;;;;14.70;9.93;;;;;;;;;;5016113;28;93315;-79
2023/06/20 06:27:18;;;;;;;15.50;9.35;;;;;;;;;;5004325;28;92387;-80
2023/06/20 06:29:44;;;;;;;14.27;8.57;;;;;;;;;;5007985;28;95819;-80
2023/06/20 06:32:12;;;;;;;20.70;9.50;;;;;;;;;;5005463;28;96046;-79
2023/06/20 06:34:41;;;;;;;15.30;9.50;;;;;;;;;;5006018;28;93036;-79
2023/06/20 06:37:09;;;;;;;14.75;9.00;;;;;;;;;;5002628;28;92410;-79
2023/06/20 06:39:36;;;;;;;26.58;9.98;;;;;;;;;;4995710;28;94450;-80
2023/06/20 06:42:03;;;;;;;14.13;10.07;;;;;;;;;;5002592;28;92441;-80
2023/06/20 06:44:34;;;;;;;12.88;8.73;;;;;;;;;;5009982;28;93022;-82
2023/06/20 06:47:01;;;;;;;11.43;9.30;;;;;;;;;;5023577;28;94648;-79
2023/06/20 06:49:27;;;;;;;14.32;9.05;;;;;;;;;;5006082;28;94934;-79
2023/06/20 06:51:56;;;;;;;13.98;9.52;;;;;;;;;;4997616;28;92735;-79
2023/06/20 06:54:22;;;;;;;13.18;9.73;;;;;;;;;;5039233;27;94855;-79
2023/06/20 06:56:49;;;;;;;20.67;9.93;;;;;;;;;;5025252;28;92344;-80
2023/06/20 06:59:16;;;;;;;14.73;9.20;;;;;;;;;;5008045;28;92481;-81
2023/06/20 07:01:42;;;;;;;16.92;10.02;;;;;;;;;;4997088;28;92941;-79
2023/06/20 07:04:09;;;;;;;16.15;9.68;;;;;;;;;;5017564;28;95626;-80
2023/06/20 07:06:35;;;;;;;10.70;9.25;;;;;;;;;;5007658;28;92244;-79
2023/06/20 07:09:02;;;;;;;15.85;9.43;;;;;;;;;;5005992;28;92449;-81
2023/06/20 07:11:29;;;;;;;17.02;10.73;;;;;;;;;;5007677;28;91848;-81
2023/06/20 07:13:55;;;;;;;16.02;9.40;;;;;;;;;;5010410;28;93701;-81
2023/06/20 07:16:22;;;;;;;18.80;10.07;;;;;;;;;;5008180;28;93199;-81
2023/06/20 07:18:49;;;;;;;13.95;9.80;;;;;;;;;;5008845;28;94913;-81
2023/06/20 07:21:16;;;;;;;22.13;11.15;;;;;;;;;;5019330;28;92793;-80
2023/06/20 07:23:43;;;;;;;11.43;9.05;;;;;;;;;;5001953;28;93036;-80
2023/06/20 07:26:09;;;;;;;14.20;8.43;;;;;;;;;;4991270;28;92280;-81
2023/06/20 07:28:36;;;;;;;18.42;10.43;;;;;;;;;;5010722;28;93215;-81
2023/06/20 07:31:03;;;;;;;19.88;10.05;;;;;;;;;;5006161;28;92434;-80
2023/06/20 07:33:29;;;;;;;21.60;10.05;;;;;;;;;;5002121;28;92956;-80
2023/06/20 07:35:58;;;;;;;16.45;10.60;;;;;;;;;;5012051;28;92242;-81
2023/06/20 07:38:24;;;;;;;11.68;9.55;;;;;;;;;;4999937;28;92422;-79
2023/06/20 07:40:51;;;;;;;18.80;10.70;;;;;;;;;;5011295;28;92061;-80
2023/06/20 07:43:20;;;;;;;16.10;11.15;;;;;;;;;;4999731;28;94573;-81
2023/06/20 07:45:47;;;;;;;12.43;9.45;;;;;;;;;;4997188;28;94039;-80
2023/06/20 07:48:14;;;;;;;19.05;12.55;;;;;;;;;;5010053;28;92376;-80
2023/06/20 07:50:41;;;;;;;12.85;10.75;;;;;;;;;;4991920;28;92595;-80
2023/06/20 07:53:07;;;;;;;14.88;11.23;;;;;;;;;;4995320;28;93831;-80
2023/06/20 07:55:34;;;;;;;14.98;11.13;;;;;;;;;;5031489;28;94907;-79
2023/06/20 07:58:01;;;;;;;16.83;11.75;;;;;;;;;;5014089;28;92319;-81
2023/06/20 08:00:28;;;;;;;14.65;11.02;;;;;;;;;;4989548;28;92529;-80
2023/06/20 08:02:55;;;;;;;12.82;10.63;;;;;;;;;;4984437;28;92177;-81
2023/06/20 08:05:22;;;;;;;14.57;10.98;;;;;;;;;;4992212;28;93243;-80
2023/06/20 08:07:49;;;;;;;15.98;10.32;;;;;;;;;;5009265;28;94602;-80
2023/06/20 08:10:16;;;;;;;14.20;10.32;;;;;;;;;;5008630;28;91769;-80
2023/06/20 08:12:43;;;;;;;21.15;10.98;;;;;;;;;;5010476;28;93742;-80
2023/06/20 08:15:10;;;;;;;13.43;10.52;;;;;;;;;;5005823;28;92488;-81
2023/06/20 08:17:37;;;;;;;16.70;10.48;;;;;;;;;;5008364;28;92091;-80
2023/06/20 08:20:09;;;;;;;14.73;10.50;;;;;;;;;;5016018;28;92452;-80
2023/06/20 08:22:36;;;;;;;26.40;10.13;;;;;;;;;;4992487;28;92420;-79
2023/06/20 08:25:03;;;;;;;10.57;9.43;;;;;;;;;;5009068;28;94391;-80
2023/06/20 08:27:31;;;;;;;17.80;8.93;;;;;;;;;;4999432;28;92229;-80
2023/06/20 08:29:57;;;;;;;12.93;8.30;;;;;;;;;;5001736;28;92356;-80
2023/06/20 08:32:26;;;;;;;8.82;6.88;;;;;;;;;;5014737;28;95823;-80
2023/06/20 08:34:53;;;;;;;9.18;6.03;;;;;;;;;;5012744;28;93353;-80
2023/06/20 08:37:23;;;;;;;8.98;6.20;;;;;;;;;;4999336;28;92351;-80
2023/06/20 08:39:50;;;;;;;10.70;6.05;;;;;;;;;;5001311;28;94772;-80
2023/06/20 08:42:16;;;;;;;8.63;5.85;;;;;;;;;;5016481;28;92146;-79
2023/06/20 08:44:43;;;;;;;7.15;6.45;;;;;;;;;;5008852;28;92164;-80
2023/06/20 08:47:23;;;;;;;10.02;6.80;;;;;;;;;;5010115;28;95477;-80
2023/06/20 08:49:50;;;;;;;12.80;7.20;;;;;;;;;;5001242;28;93915;-81
2023/06/20 08:52:21;;;;;;;11.23;7.70;;;;;;;;;;5023961;28;92897;-80
2023/06/20 08:54:48;;;;;;;14.07;6.75;;;;;;;;;;5008190;28;93779;-80
2023/06/20 08:57:15;;;;;;;14.40;6.70;;;;;;;;;;4991072;28;94885;-81
2023/06/20 08:59:41;;;;;;;9.50;5.85;;;;;;;;;;5011758;28;93953;-81
2023/06/20 09:02:09;;;;;;;13.07;6.50;;;;;;;;;;5009188;28;92499;-81
2023/06/20 09:04:36;;;;;;;16.10;6.25;;;;;;;;;;5003358;28;92391;-81
2023/06/20 09:07:14;;;;;;;10.82;6.60;;;;;;;;;;5000487;28;94207;-81
2023/06/20 09:09:41;;;;;;;12.85;7.47;;;;;;;;;;5003077;28;92266;-81
2023/06/20 09:12:08;;;;;;;9.98;6.05;;;;;;;;;;5010168;28;92364;-81
2023/06/20 09:14:34;;;;;;;9.00;6.60;;;;;;;;;;5004312;28;92056;-82
2023/06/20 09:17:03;;;;;;;9.13;6.63;;;;;;;;;;5008232;28;93037;-82
2023/06/20 09:19:40;;;;;;;10.25;6.25;;;;;;;;;;5016701;28;92416;-82
2023/06/20 09:22:07;;;;;;;8.43;5.80;;;;;;;;;;5002727;28;95248;-82
2023/06/20 09:24:42;;;;;;;8.75;6.60;;;;;;;;;;5011684;28;92431;-82
2023/06/20 09:27:09;;;;;;;6.72;5.68;;;;;;;;;;4989068;28;93025;-82
2023/06/20 09:29:51;;;;;;;7.90;6.05;;;;;;;;;;4991749;28;93473;-82
2023/06/20 09:32:21;;;;;;;8.40;6.00;;;;;;;;;;5002518;28;92404;-83
2023/06/20 09:34:49;;;;;;;6.10;5.50;;;;;;;;;;5003915;28;92818;-81
2023/06/20 09:37:17;;;;;;;6.10;5.25;;;;;;;;;;5018626;28;92952;-82
2023/06/20 09:39:44;;;;;;;7.75;5.35;;;;;;;;;;5009787;28;93457;-82
2023/06/20 09:42:12;;;;;;;13.82;5.22;;;;;;;;;;4993210;28;92339;-83
2023/06/20 09:44:40;;;;;;;6.72;5.18;;;;;;;;;;4999013;28;93153;-83
2023/06/20 09:47:07;;;;;;;15.95;5.05;;;;;;;;;;5002984;28;94758;-83
2023/06/20 09:49:39;;;;;;;10.90;5.38;;;;;;;;;;5000321;28;93056;-82
2023/06/20 09:52:14;;;;;;;5.95;4.53;;;;;;;;;;4991781;28;92549;-82
2023/06/20 09:54:55;;;;;;;4.45;4.00;;;;;;;;;;5004191;28;92784;-83
2023/06/20 09:57:25;;;;;;;9.60;5.45;;;;;;;;;;5006430;28;93257;-81
2023/06/20 09:59:54;;;;;;;9.13;5.10;;;;;;;;;;5000596;28;92365;-82
2023/06/20 10:02:24;;;;;;;5.07;4.55;;;;;;;;;;4986214;28;96366;-82
2023/06/20 10:04:51;;;;;;;7.47;5.40;;;;;;;;;;5010625;28;93755;-82
2023/06/20 10:07:18;;;;;;;7.45;5.55;;;;;;;;;;5010575;28;92032;-81
2023/06/20 10:09:47;;;;;;;6.93;5.25;;;;;;;;;;5006111;28;92323;-81
2023/06/20 10:12:17;;;;;;;6.28;4.72;;;;;;;;;;4991009;28;94799;-83
2023/06/20 10:14:43;;;;;;;7.50;4.38;;;;;;;;;;5012596;28;94907;-82
2023/06/20 10:17:12;;;;;;;7.53;4.68;;;;;;;;;;5011772;28;92774;-82
2023/06/20 10:19:46;;;;;;;5.03;4.50;;;;;;;;;;5011304;28;92860;-82
2023/06/20 10:22:12;;;;;;;5.30;4.75;;;;;;;;;;5011246;28;92485;-82
2023/06/20 10:24:40;;;;;;;12.13;4.88;;;;;;;;;;5010871;28;92569;-83
2023/06/20 10:27:07;;;;;;;8.32;4.88;;;;;;;;;;4981575;28;92924;-83
2023/06/20 10:29:40;;;;;;;5.88;4.40;;;;;;;;;;5000656;28;94441;-83
2023/06/20 10:32:08;;;;;;;9.68;5.82;;;;;;;;;;5004928;28;92489;-83
2023/06/20 10:34:41;;;;;;;7.38;6.35;;;;;;;;;;4999800;28;92782;-83
2023/06/20 10:37:20;;;;;;;7.28;5.43;;;;;;;;;;5006915;28;94617;-83
2023/06/20 10:39:50;;;;;;;6.60;5.80;;;;;;;;;;5004246;28;95499;-83
2023/06/20 10:42:39;;;;;;;10.30;5.30;;;;;;;;;;5006793;28;92037;-83
2023/06/20 10:45:19;;;;;;;12.93;4.93;;;;;;;;;;5014439;28;92467;-82
2023/06/20 10:47:46;;;;;;;8.00;5.40;;;;;;;;;;4985530;28;93394;-82
2023/06/20 10:50:16;;;;;;;5.65;4.90;;;;;;;;;;5010769;28;93357;-83
2023/06/20 10:52:43;;;;;;;5.00;4.60;;;;;;;;;;5007834;28;92391;-83
2023/06/20 10:55:13;;;;;;;4.40;4.00;;;;;;;;;;5015749;28;91883;-82
2023/06/20 10:57:43;;;;;;;4.20;3.78;;;;;;;;;;5011493;28;92555;-82
2023/06/20 11:00:14;;;;;;;5.63;4.25;;;;;;;;;;4990385;28;92345;-83
2023/06/20 11:02:41;;;;;;;5.60;4.00;;;;;;;;;;4996147;28;95588;-83
2023/06/20 11:05:09;;;;;;;5.20;3.47;;;;;;;;;;4990311;28;92385;-83
2023/06/20 11:07:50;;;;;;;6.22;3.55;;;;;;;;;;4983899;28;92589;-82
2023/06/20 11:10:20;;;;;;;12.07;3.28;;;;;;;;;;4987643;28;94488;-82
2023/06/20 11:12:47;;;;;;;3.70;3.40;;;;;;;;;;4995996;28;94163;-83
2023/06/20 11:15:22;;;;;;;4.03;3.55;;;;;;;;;;4995331;28;92344;-84
2023/06/20 11:17:49;;;;;;;3.33;3.08;;;;;;;;;;5010024;28;92917;-83
2023/06/20 11:20:17;;;;;;;8.23;3.13;;;;;;;;;;5017328;28;92305;-83
2023/06/20 11:22:47;;;;;;;3.53;3.22;;;;;;;;;;5009100;28;93551;-82
2023/06/20 11:25:23;;;;;;;10.70;3.83;;;;;;;;;;5006794;28;92570;-82
2023/06/20 11:27:49;;;;;;;6.88;3.40;;;;;;;;;;4992354;28;94893;-82
2023/06/20 11:30:22;;;;;;;2.80;2.55;;;;;;;;;;4996848;28;93640;-83
2023/06/20 11:32:59;;;;;;;2.70;2.45;;;;;;;;;;5011215;28;94632;-83
2023/06/20 11:35:38;;;;;;;7.60;2.65;;;;;;;;;;4981952;28;92407;-83
2023/06/20 11:38:05;;;;;;;3.80;2.67;;;;;;;;;;4994082;28;93708;-84
2023/06/20 11:40:32;;;;;;;2.80;1.77;;;;;;;;;;4992138;28;92344;-84
2023/06/20 11:42:58;;;;;;;3.15;2.30;;;;;;;;;;5002971;28;92636;-83
2023/06/20 11:45:25;;;;;;;7.75;2.40;;;;;;;;;;5005501;28;92125;-83
2023/06/20 11:48:11;;;;;;;8.57;2.85;;;;;;;;;;4998979;28;92602;-83
2023/06/20 11:50:43;;;;;;;15.07;2.67;;;;;;;;;;5005708;28;93165;-84
2023/06/20 11:53:17;;;;;;;5.25;2.85;;;;;;;;;;4996857;28;95030;-83
2023/06/20 11:55:48;;;;;;;4.65;2.63;;;;;;;;;;4999511;28;96907;-83
2023/06/20 11:58:15;;;;;;;7.13;2.47;;;;;;;;;;4989902;28;92473;-83
2023/06/20 12:00:47;;;;;;;2.67;2.47;;;;;;;;;;4984422;28;92297;-83
2023/06/20 12:03:14;;;;;;;4.22;2.75;;;;;;;;;;4980217;28;93412;-83
2023/06/20 12:05:40;;;;;;;6.25;2.38;;;;;;;;;;5009701;28;92568;-82
2023/06/20 12:08:07;;;;;;;2.45;2.25;;;;;;;;;;5000625;28;93740;-82
2023/06/20 12:10:38;;;;;;;4.72;2.58;;;;;;;;;;5012434;28;91980;-82
2023/06/20 12:13:05;;;;;;;2.47;2.28;;;;;;;;;;5000783;28;93129;-83
2023/06/20 12:15:31;;;;;;;10.65;2.58;;;;;;;;;;5000324;28;92452;-82
2023/06/20 12:17:58;;;;;;;4.15;2.42;;;;;;;;;;4998222;28;94651;-83
2023/06/20 12:20:25;;;;;;;9.60;2.90;;;;;;;;;;5002699;28;92149;-82
2023/06/20 12:23:03;;;;;;;3.05;2.55;;;;;;;;;;5000222;28;92436;-81
2023/06/20 12:25:30;;;;;;;3.83;2.63;;;;;;;;;;4991930;28;93022;-82
2023/06/20 12:27:58;;;;;;;3.67;2.58;;;;;;;;;;4989598;28;92419;-81
2023/06/20 12:30:25;;;;;;;5.03;1.88;;;;;;;;;;5013200;28;92556;-81
2023/06/20 12:32:55;;;;;;;2.67;2.40;;;;;;;;;;4987056;28;93092;-81
2023/06/20 12:35:22;;;;;;;6.13;2.50;;;;;;;;;;4996604;28;91935;-81
2023/06/20 12:37:48;;;;;;;2.83;2.25;;;;;;;;;;4990195;28;93688;-82
2023/06/20 12:40:15;;;;;;;4.28;2.35;;;;;;;;;;4998599;28;92431;-81
2023/06/20 12:42:43;;;;;;;7.70;2.65;;;;;;;;;;5005090;28;94729;-80
2023/06/20 12:45:10;;;;;;;2.20;2.10;;;;;;;;;;5006405;28;92587;-80
2023/06/20 12:47:37;;;;;;;2.40;2.30;;;;;;;;;;4995582;28;92512;-80
2023/06/20 12:50:05;;;;;;;6.03;2.50;;;;;;;;;;5016319;28;93905;-80
2023/06/20 12:52:31;;;;;;;5.85;2.83;;;;;;;;;;5010374;28;92398;-80
2023/06/20 12:55:00;;;;;;;2.50;2.30;;;;;;;;;;5007162;28;92434;-80
2023/06/20 12:57:28;;;;;;;6.85;2.78;;;;;;;;;;4998399;28;92362;-80
2023/06/20 12:59:54;;;;;;;5.70;2.13;;;;;;;;;;5004460;28;95007;-80
2023/06/20 13:02:22;;;;;;;2.70;2.30;;;;;;;;;;5013125;28;91938;-80
2023/06/20 13:04:51;;;;;;;9.05;2.47;;;;;;;;;;5012392;28;92248;-80
2023/06/20 13:07:19;;;;;;;3.88;2.30;;;;;;;;;;5019385;28;94495;-81
2023/06/20 13:09:50;;;;;;;2.83;2.05;;;;;;;;;;5010184;28;93470;-82
2023/06/20 13:12:17;;;;;;;4.15;2.03;;;;;;;;;;5005716;28;92703;-82
2023/06/20 13:14:44;;;;;;;8.32;2.10;;;;;;;;;;5019983;28;92120;-82
2023/06/20 13:17:34;;;;;;;2.60;2.40;;;;;;;;;;5002696;28;93138;-82
2023/06/20 13:20:01;;;;;;;4.13;1.90;;;;;;;;;;5018546;28;92702;-81
2023/06/20 13:22:27;;;;;;;3.55;1.90;;;;;;;;;;5018398;28;92171;-82
2023/06/20 13:24:54;;;;;;;6.93;1.80;;;;;;;;;;5005043;28;93240;-81
2023/06/20 13:27:25;;;;;;;5.15;2.42;;;;;;;;;;5013947;28;92289;-81
2023/06/20 13:29:53;;;;;;;3.22;2.00;;;;;;;;;;5001941;28;93378;-81
2023/06/20 13:32:20;;;;;;;4.32;2.03;;;;;;;;;;5006665;28;94989;-81
2023/06/20 13:34:46;;;;;;;1.98;1.77;;;;;;;;;;5002004;28;93928;-81
2023/06/20 13:37:13;;;;;;;2.65;1.80;;;;;;;;;;5009510;28;92217;-82
2023/06/20 13:39:40;;;;;;;2.50;2.00;;;;;;;;;;5002529;28;92949;-82
2023/06/20 13:42:08;;;;;;;7.35;1.88;;;;;;;;;;4998813;28;94691;-83
2023/06/20 13:44:35;;;;;;;6.43;1.88;;;;;;;;;;5005553;28;93226;-82
2023/06/20 13:47:01;;;;;;;2.50;1.90;;;;;;;;;;4994345;28;93673;-82
2023/06/20 13:49:28;;;;;;;2.20;1.95;;;;;;;;;;5017872;28;91853;-81
2023/06/20 13:51:55;;;;;;;1.73;1.63;;;;;;;;;;4999999;28;92414;-82
2023/06/20 13:54:22;;;;;;;2.75;1.80;;;;;;;;;;5005069;28;93884;-81
2023/06/20 13:56:49;;;;;;;1.90;1.70;;;;;;;;;;5002816;28;97691;-82
2023/06/20 13:59:15;;;;;;;3.35;2.00;;;;;;;;;;5012754;28;92000;-82
2023/06/20 14:01:42;;;;;;;2.00;1.88;;;;;;;;;;5002701;28;92744;-82
2023/06/20 14:04:08;;;;;;;2.33;1.70;;;;;;;;;;5011720;28;93881;-82
2023/06/20 14:06:35;;;;;;;3.47;1.65;;;;;;;;;;5009076;28;92979;-80
2023/06/20 14:09:04;;;;;;;3.63;1.60;;;;;;;;;;4998653;28;92306;-79
2023/06/20 14:11:30;;;;;;;1.60;1.48;;;;;;;;;;5009377;28;92304;-81
2023/06/20 14:13:57;;;;;;;3.05;1.65;;;;;;;;;;5011180;28;94653;-81
2023/06/20 14:16:27;;;;;;;3.70;1.40;;;;;;;;;;5011149;28;92113;-80
2023/06/20 14:18:54;;;;;;;2.28;1.40;;;;;;;;;;5004649;28;92432;-81
2023/06/20 14:21:24;;;;;;;3.33;1.40;;;;;;;;;;5004961;28;94528;-81
2023/06/20 14:23:51;;;;;;;3.00;1.40;;;;;;;;;;5004256;28;92340;-80
2023/06/20 14:26:19;;;;;;;7.50;1.65;;;;;;;;;;5020502;28;95893;-81
2023/06/20 14:28:47;;;;;;;1.63;1.40;;;;;;;;;;5001902;28;92671;-80
2023/06/20 14:31:14;;;;;;;1.70;1.40;;;;;;;;;;5017508;28;92340;-81
2023/06/20 14:33:40;;;;;;;2.30;1.48;;;;;;;;;;5007018;28;92181;-80
2023/06/20 14:36:07;;;;;;;4.88;1.55;;;;;;;;;;5012024;28;92786;-80
2023/06/20 14:38:37;;;;;;;1.98;1.83;;;;;;;;;;5006761;28;92414;-80
2023/06/20 14:41:04;;;;;;;3.05;2.13;;;;;;;;;;5005466;28;92022;-79
2023/06/20 14:43:30;;;;;;;1.48;1.42;;;;;;;;;;5025144;28;94204;-79